createdAt,value
2022-12-18T00:00:49.617Z,102390.47
2022-12-18T00:01:52.308Z,102399.03
2022-12-18T00:02:54.835Z,102397.97
2022-12-18T00:03:57.329Z,102392.94
2022-12-18T00:05:02.696Z,102395.66
2022-12-18T00:06:05.337Z,102391.44
2022-12-18T00:07:07.845Z,102394.34
2022-12-18T00:08:10.009Z,102400.63
2022-12-18T00:09:12.967Z,102389.38
2022-12-18T00:10:15.575Z,102387.78
2022-12-18T00:11:20.063Z,102392.66
2022-12-18T00:12:22.431Z,102392.97
2022-12-18T00:13:24.619Z,102388.94
2022-12-18T00:14:27.056Z,102387.38
2022-12-18T00:15:29.446Z,102389.75
2022-12-18T00:16:33.947Z,102398.81
2022-12-18T00:17:36.683Z,102397.81
2022-12-18T00:18:40.634Z,102397.97
2022-12-18T00:19:43.055Z,102405.59
2022-12-18T00:20:45.408Z,102408.00
2022-12-18T00:21:47.560Z,102407.69
2022-12-18T00:22:50.129Z,102404.53
2022-12-18T00:23:53.038Z,102407.19
2022-12-18T00:24:55.202Z,102409.66
2022-12-18T00:26:02.001Z,102415.06
2022-12-18T00:27:06.709Z,102413.31
2022-12-18T00:28:09.279Z,102414.53
2022-12-18T00:29:14.801Z,102409.22
2022-12-18T00:30:19.268Z,102409.75
2022-12-18T00:31:24.794Z,102415.22
2022-12-18T00:32:29.034Z,102409.91
2022-12-18T00:33:31.700Z,102402.63
2022-12-18T00:34:33.950Z,102409.44
2022-12-18T00:35:36.313Z,102412.06
2022-12-18T00:36:38.699Z,102408.44
2022-12-18T00:37:41.202Z,102402.59
2022-12-18T00:38:43.480Z,102410.28
2022-12-18T00:39:45.663Z,102409.59
2022-12-18T00:40:48.108Z,102412.31
2022-12-18T00:42:08.765Z,102412.88
2022-12-18T00:43:11.164Z,102422.28
2022-12-18T00:44:15.373Z,102421.22
2022-12-18T00:45:17.603Z,102421.88
2022-12-18T00:46:20.035Z,102424.31
2022-12-18T00:47:23.900Z,102415.25
2022-12-18T00:48:26.404Z,102414.84
2022-12-18T00:49:28.643Z,102422.00
2022-12-18T00:50:30.898Z,102417.00
2022-12-18T00:51:35.561Z,102411.53
2022-12-18T00:52:40.824Z,102411.41
2022-12-18T00:53:43.116Z,102412.53
2022-12-18T00:54:45.307Z,102413.72
2022-12-18T00:55:48.153Z,102409.34
2022-12-18T00:56:50.525Z,102401.81
2022-12-18T00:57:53.730Z,102408.09
2022-12-18T00:58:56.140Z,102405.28
2022-12-18T00:59:58.622Z,102410.28
2022-12-18T01:01:01.023Z,102410.09
2022-12-18T01:02:03.359Z,102410.09
2022-12-18T01:03:06.524Z,102403.34
2022-12-18T01:04:09.055Z,102408.38
2022-12-18T01:05:13.199Z,102403.84
2022-12-18T01:06:17.104Z,102411.78
2022-12-18T01:07:19.325Z,102414.75
2022-12-18T01:08:21.721Z,102412.31
2022-12-18T01:09:24.229Z,102407.84
2022-12-18T01:10:27.842Z,102410.75
2022-12-18T01:11:33.273Z,102409.91
2022-12-18T01:12:35.636Z,102409.28
2022-12-18T01:13:39.038Z,102410.25
2022-12-18T01:14:41.535Z,102402.19
2022-12-18T01:15:52.879Z,102407.63
2022-12-18T01:16:55.175Z,102403.47
2022-12-18T01:17:57.366Z,102400.25
2022-12-18T01:19:02.992Z,102405.75
2022-12-18T01:20:05.956Z,102407.69
2022-12-18T01:21:10.732Z,102397.09
2022-12-18T01:22:13.076Z,102403.41
2022-12-18T01:23:15.242Z,102406.25
2022-12-18T01:24:17.597Z,102402.50
2022-12-18T01:25:19.760Z,102411.53
2022-12-18T01:26:22.655Z,102410.09
2022-12-18T01:27:26.457Z,102410.44
2022-12-18T01:28:28.850Z,102408.25
2022-12-18T01:29:31.352Z,102407.41
2022-12-18T01:30:33.588Z,102406.13
2022-12-18T01:31:35.869Z,102415.03
2022-12-18T01:32:38.326Z,102415.91
2022-12-18T01:33:41.040Z,102406.38
2022-12-18T01:34:43.643Z,102414.22
2022-12-18T01:35:45.807Z,102411.91
2022-12-18T01:36:48.058Z,102416.50
2022-12-18T01:37:50.255Z,102419.88
2022-12-18T01:38:53.204Z,102415.13
2022-12-18T01:39:55.662Z,102415.44
2022-12-18T01:41:00.963Z,102416.50
2022-12-18T01:42:14.867Z,102426.41
2022-12-18T01:43:18.242Z,102422.41
2022-12-18T01:44:59.296Z,102430.88
2022-12-18T01:46:01.560Z,102429.59
2022-12-18T01:47:03.821Z,102421.16
2022-12-18T01:48:09.677Z,102422.16
2022-12-18T01:49:12.941Z,102419.56
2022-12-18T01:50:39.318Z,102421.44
2022-12-18T01:51:42.029Z,102428.97
2022-12-18T01:52:48.362Z,102422.75
2022-12-18T01:53:50.956Z,102425.91
2022-12-18T01:54:54.064Z,102426.81
2022-12-18T01:55:58.726Z,102431.44
2022-12-18T01:57:01.975Z,102433.44
2022-12-18T01:58:04.841Z,102437.53
2022-12-18T01:59:11.086Z,102431.13
2022-12-18T02:00:16.881Z,102435.50
2022-12-18T02:01:20.749Z,102430.13
2022-12-18T02:02:23.542Z,102432.13
2022-12-18T02:03:26.129Z,102428.06
2022-12-18T02:04:28.995Z,102435.97
2022-12-18T02:06:02.302Z,102430.19
2022-12-18T02:07:10.536Z,102433.91
2022-12-18T02:08:15.674Z,102438.50
2022-12-18T02:09:24.543Z,102440.06
2022-12-18T02:10:36.005Z,102433.44
2022-12-18T02:12:16.209Z,102434.06
2022-12-18T02:13:53.693Z,102440.84
2022-12-18T02:15:51.267Z,102444.94
2022-12-18T02:16:58.806Z,102448.84
2022-12-18T02:18:24.932Z,102444.06
2022-12-18T02:19:58.464Z,102450.34
2022-12-18T02:21:10.664Z,102448.53
2022-12-18T02:22:51.307Z,102452.38
2022-12-18T02:24:15.395Z,102452.75
2022-12-18T02:25:25.208Z,102455.25
2022-12-18T02:26:35.575Z,102461.28
2022-12-18T02:27:40.406Z,102458.91
2022-12-18T02:28:52.196Z,102460.84
2022-12-18T02:29:59.095Z,102451.31
2022-12-18T02:31:07.514Z,102460.94
2022-12-18T02:32:17.264Z,102452.06
2022-12-18T02:33:21.068Z,102450.75
2022-12-18T02:34:29.062Z,102453.59
2022-12-18T02:35:32.673Z,102451.38
2022-12-18T02:36:41.491Z,102446.47
2022-12-18T02:37:46.398Z,102445.34
2022-12-18T02:38:49.187Z,102449.81
2022-12-18T02:39:56.337Z,102452.97
2022-12-18T02:40:59.487Z,102445.13
2022-12-18T02:42:08.647Z,102446.47
2022-12-18T02:43:13.740Z,102449.63
2022-12-18T02:44:16.145Z,102442.13
2022-12-18T02:45:18.919Z,102453.66
2022-12-18T02:46:51.172Z,102445.72
2022-12-18T02:47:53.575Z,102456.47
2022-12-18T02:49:10.170Z,102457.31
2022-12-18T02:50:25.729Z,102454.91
2022-12-18T02:51:59.302Z,102456.31
2022-12-18T02:53:01.447Z,102456.88
2022-12-18T02:54:19.184Z,102449.91
2022-12-18T02:55:47.314Z,102454.66
2022-12-18T02:56:57.076Z,102451.97
2022-12-18T02:58:33.856Z,102452.28
2022-12-18T02:59:59.521Z,102455.94
2022-12-18T03:01:14.747Z,102462.28
2022-12-18T03:02:17.410Z,102456.19
2022-12-18T03:03:26.236Z,102463.31
2022-12-18T03:04:32.144Z,102463.06
2022-12-18T03:05:41.962Z,102463.34
2022-12-18T03:06:49.366Z,102467.09
2022-12-18T03:07:57.936Z,102463.72
2022-12-18T03:09:15.366Z,102462.00
2022-12-18T03:10:22.737Z,102467.78
2022-12-18T03:11:46.491Z,102465.47
2022-12-18T03:13:16.256Z,102459.34
2022-12-18T03:14:21.747Z,102463.25
2022-12-18T03:15:32.838Z,102463.97
2022-12-18T03:16:44.636Z,102474.13
2022-12-18T03:17:53.508Z,102469.13
2022-12-18T03:19:02.550Z,102479.06
2022-12-18T03:20:12.811Z,102469.78
2022-12-18T03:21:19.135Z,102472.81
2022-12-18T03:22:24.187Z,102474.84
2022-12-18T03:23:33.412Z,102470.22
2022-12-18T03:24:39.973Z,102472.16
2022-12-18T03:25:45.556Z,102471.34
2022-12-18T03:26:54.485Z,102473.13
2022-12-18T03:28:00.101Z,102476.16
2022-12-18T03:29:09.123Z,102472.84
2022-12-18T03:30:14.944Z,102475.69
2022-12-18T03:31:19.022Z,102477.34
2022-12-18T03:32:32.206Z,102475.84
2022-12-18T03:33:59.850Z,102469.84
2022-12-18T03:35:13.893Z,102478.06
2022-12-18T03:36:22.588Z,102472.47
2022-12-18T03:37:26.357Z,102467.09
2022-12-18T03:38:28.708Z,102472.75
2022-12-18T03:39:31.174Z,102467.88
2022-12-18T03:40:44.075Z,102476.81
2022-12-18T03:42:28.049Z,102471.34
2022-12-18T03:43:42.647Z,102476.72
2022-12-18T03:44:57.828Z,102472.44
2022-12-18T03:46:27.284Z,102471.97
2022-12-18T03:47:45.557Z,102473.53
2022-12-18T03:49:00.009Z,102476.56
2022-12-18T03:50:17.343Z,102478.50
2022-12-18T03:51:33.748Z,102476.19
2022-12-18T03:53:03.945Z,102469.97
2022-12-18T03:54:09.265Z,102464.59
2022-12-18T03:55:17.838Z,102480.34
2022-12-18T03:56:23.917Z,102462.19
2022-12-18T03:57:30.015Z,102469.59
2022-12-18T03:58:37.659Z,102461.81
2022-12-18T03:59:57.579Z,102471.81
2022-12-18T04:01:10.745Z,102474.81
2022-12-18T04:02:15.540Z,102472.44
2022-12-18T04:03:23.968Z,102480.97
2022-12-18T04:04:29.842Z,102483.09
2022-12-18T04:05:36.080Z,102482.41
2022-12-18T04:06:41.103Z,102483.44
2022-12-18T04:07:48.880Z,102486.50
2022-12-18T04:08:51.494Z,102494.44
2022-12-18T04:09:59.576Z,102489.97
2022-12-18T04:11:02.830Z,102488.13
2022-12-18T04:12:05.476Z,102480.97
2022-12-18T04:13:08.446Z,102484.69
2022-12-18T04:14:17.633Z,102493.59
2022-12-18T04:15:21.906Z,102494.75
2022-12-18T04:16:27.566Z,102501.97
2022-12-18T04:17:32.914Z,102504.53
2022-12-18T04:18:35.241Z,102501.94
2022-12-18T04:19:37.851Z,102497.50
2022-12-18T04:20:40.497Z,102494.28
2022-12-18T04:21:43.615Z,102489.63
2022-12-18T04:22:47.811Z,102492.53
2022-12-18T04:23:50.488Z,102486.47
2022-12-18T04:24:55.557Z,102493.97
2022-12-18T04:26:05.557Z,102486.34
2022-12-18T04:27:30.709Z,102485.75
2022-12-18T04:28:35.595Z,102485.22
2022-12-18T04:29:38.570Z,102487.81
2022-12-18T04:30:41.559Z,102496.28
2022-12-18T04:31:44.558Z,102496.44
2022-12-18T04:32:52.047Z,102492.34
2022-12-18T04:33:55.469Z,102495.31
2022-12-18T04:34:58.334Z,102505.34
2022-12-18T04:36:01.019Z,102507.69
2022-12-18T04:37:03.680Z,102510.88
2022-12-18T04:38:09.442Z,102516.13
2022-12-18T04:39:11.659Z,102519.56
2022-12-18T04:40:14.110Z,102513.22
2022-12-18T04:41:21.440Z,102523.50
2022-12-18T04:42:25.067Z,102517.94
2022-12-18T04:43:27.859Z,102516.91
2022-12-18T04:44:30.099Z,102513.44
2022-12-18T04:45:33.182Z,102510.34
2022-12-18T04:46:35.418Z,102522.09
2022-12-18T04:47:37.932Z,102512.97
2022-12-18T04:48:40.446Z,102515.72
2022-12-18T04:49:42.647Z,102510.59
2022-12-18T04:50:44.910Z,102506.44
2022-12-18T04:51:47.144Z,102508.84
2022-12-18T04:52:49.570Z,102510.13
2022-12-18T04:53:51.939Z,102509.59
2022-12-18T04:54:54.088Z,102518.81
2022-12-18T04:56:11.385Z,102519.75
2022-12-18T04:57:13.648Z,102517.31
2022-12-18T04:58:17.054Z,102515.06
2022-12-18T04:59:19.261Z,102520.31
2022-12-18T05:00:22.064Z,102516.28
2022-12-18T05:01:27.122Z,102513.97
2022-12-18T05:02:36.525Z,102514.78
2022-12-18T05:03:39.764Z,102512.09
2022-12-18T05:04:42.495Z,102511.94
2022-12-18T05:05:44.891Z,102511.66
2022-12-18T05:06:47.104Z,102513.44
2022-12-18T05:07:49.681Z,102511.06
2022-12-18T05:08:52.156Z,102519.34
2022-12-18T05:09:54.339Z,102516.72
2022-12-18T05:11:05.194Z,102531.44
2022-12-18T05:12:07.696Z,102528.75
2022-12-18T05:13:09.862Z,102526.19
2022-12-18T05:14:13.662Z,102523.03
2022-12-18T05:15:15.986Z,102528.19
2022-12-18T05:16:18.473Z,102531.81
2022-12-18T05:17:20.924Z,102530.09
2022-12-18T05:18:24.364Z,102531.75
2022-12-18T05:19:26.728Z,102535.88
2022-12-18T05:20:29.012Z,102532.44
2022-12-18T05:21:31.975Z,102534.31
2022-12-18T05:22:34.331Z,102530.78
2022-12-18T05:23:37.334Z,102536.78
2022-12-18T05:24:39.942Z,102522.25
2022-12-18T05:25:42.142Z,102523.56
2022-12-18T05:26:44.547Z,102529.22
2022-12-18T05:27:47.343Z,102521.56
2022-12-18T05:28:49.767Z,102522.78
2022-12-18T05:29:51.979Z,102523.56
2022-12-18T05:30:57.107Z,102516.88
2022-12-18T05:31:59.483Z,102529.50
2022-12-18T05:33:03.851Z,102523.75
2022-12-18T05:34:07.076Z,102530.50
2022-12-18T05:35:11.489Z,102538.50
2022-12-18T05:36:13.699Z,102537.91
2022-12-18T05:37:16.104Z,102539.19
2022-12-18T05:38:18.658Z,102535.72
2022-12-18T05:39:23.361Z,102534.38
2022-12-18T05:40:25.592Z,102536.84
2022-12-18T05:41:28.509Z,102542.03
2022-12-18T05:42:31.562Z,102533.03
2022-12-18T05:43:35.983Z,102544.72
2022-12-18T05:44:38.585Z,102540.84
2022-12-18T05:45:42.578Z,102533.41
2022-12-18T05:46:44.834Z,102539.63
2022-12-18T05:47:47.021Z,102536.09
2022-12-18T05:48:51.214Z,102542.09
2022-12-18T05:49:53.403Z,102545.00
2022-12-18T05:50:55.564Z,102547.41
2022-12-18T05:51:57.926Z,102547.13
2022-12-18T05:53:00.120Z,102547.34
2022-12-18T05:54:04.938Z,102549.19
2022-12-18T05:55:08.763Z,102553.00
2022-12-18T05:56:13.695Z,102549.19
2022-12-18T05:57:15.914Z,102551.22
2022-12-18T05:58:18.273Z,102556.63
2022-12-18T05:59:20.760Z,102553.53
2022-12-18T06:00:26.277Z,102555.28
2022-12-18T06:01:28.601Z,102561.47
2022-12-18T06:02:30.881Z,102566.16
2022-12-18T06:03:34.165Z,102563.69
2022-12-18T06:04:36.982Z,102562.66
2022-12-18T06:05:43.760Z,102561.41
2022-12-18T06:06:46.130Z,102564.31
2022-12-18T06:07:48.346Z,102560.06
2022-12-18T06:08:51.194Z,102557.28
2022-12-18T06:09:53.594Z,102573.25
2022-12-18T06:10:55.968Z,102565.06
2022-12-18T06:11:58.190Z,102576.81
2022-12-18T06:13:03.114Z,102572.69
2022-12-18T06:14:06.789Z,102578.69
2022-12-18T06:15:09.518Z,102584.41
2022-12-18T06:16:11.771Z,102586.16
2022-12-18T06:17:14.069Z,102579.19
2022-12-18T06:18:16.414Z,102581.19
2022-12-18T06:19:18.801Z,102581.09
2022-12-18T06:20:26.009Z,102585.06
2022-12-18T06:21:33.813Z,102575.09
2022-12-18T06:22:36.818Z,102582.50
2022-12-18T06:23:39.516Z,102581.41
2022-12-18T06:24:44.972Z,102580.81
2022-12-18T06:25:47.580Z,102581.91
2022-12-18T06:26:49.750Z,102580.84
2022-12-18T06:27:51.937Z,102580.84
2022-12-18T06:28:54.364Z,102577.56
2022-12-18T06:29:56.580Z,102579.81
2022-12-18T06:30:58.733Z,102576.38
2022-12-18T06:32:03.260Z,102586.09
2022-12-18T06:33:05.567Z,102580.25
2022-12-18T06:34:07.771Z,102587.69
2022-12-18T06:35:10.365Z,102584.69
2022-12-18T06:36:14.239Z,102585.38
2022-12-18T06:37:16.595Z,102588.72
2022-12-18T06:38:18.774Z,102585.75
2022-12-18T06:39:25.087Z,102590.22
2022-12-18T06:40:27.629Z,102588.69
2022-12-18T06:41:29.857Z,102588.88
2022-12-18T06:42:32.969Z,102583.41
2022-12-18T06:43:35.368Z,102589.84
2022-12-18T06:44:37.649Z,102591.53
2022-12-18T06:45:40.425Z,102587.91
2022-12-18T06:46:45.507Z,102593.28
2022-12-18T06:47:47.718Z,102591.28
2022-12-18T06:48:51.468Z,102588.94
2022-12-18T06:49:53.636Z,102592.63
2022-12-18T06:50:56.124Z,102595.81
2022-12-18T06:51:58.342Z,102608.22
2022-12-18T06:53:00.710Z,102606.28
2022-12-18T06:54:06.181Z,102601.63
2022-12-18T06:55:09.293Z,102609.72
2022-12-18T06:56:11.838Z,102611.38
2022-12-18T06:57:14.006Z,102614.59
2022-12-18T06:58:16.492Z,102610.19
2022-12-18T06:59:18.893Z,102616.63
2022-12-18T07:00:22.797Z,102616.03
2022-12-18T07:01:25.544Z,102614.59
2022-12-18T07:02:27.978Z,102613.94
2022-12-18T07:03:30.549Z,102622.72
2022-12-18T07:04:33.164Z,102626.44
2022-12-18T07:05:35.597Z,102624.88
2022-12-18T07:06:37.813Z,102630.41
2022-12-18T07:07:40.269Z,102629.22
2022-12-18T07:08:44.190Z,102632.81
2022-12-18T07:09:46.651Z,102631.47
2022-12-18T07:10:55.775Z,102626.06
2022-12-18T07:11:58.459Z,102628.13
2022-12-18T07:13:03.922Z,102629.28
2022-12-18T07:14:06.116Z,102627.72
2022-12-18T07:15:08.923Z,102626.78
2022-12-18T07:16:24.647Z,102633.31
2022-12-18T07:17:27.742Z,102638.47
2022-12-18T07:18:30.237Z,102634.94
2022-12-18T07:19:32.526Z,102636.78
2022-12-18T07:20:34.913Z,102633.03
2022-12-18T07:21:37.300Z,102638.53
2022-12-18T07:22:39.547Z,102636.19
2022-12-18T07:23:43.695Z,102638.03
2022-12-18T07:24:47.066Z,102637.56
2022-12-18T07:25:52.539Z,102639.38
2022-12-18T07:26:54.929Z,102637.56
2022-12-18T07:27:57.098Z,102641.56
2022-12-18T07:28:59.581Z,102632.72
2022-12-18T07:30:01.944Z,102641.66
2022-12-18T07:31:12.939Z,102639.81
2022-12-18T07:32:15.408Z,102632.28
2022-12-18T07:33:17.624Z,102633.56
2022-12-18T07:34:19.827Z,102638.44
2022-12-18T07:35:25.669Z,102633.63
2022-12-18T07:36:28.351Z,102651.44
2022-12-18T07:37:30.542Z,102648.53
2022-12-18T07:38:33.922Z,102656.22
2022-12-18T07:39:36.342Z,102657.34
2022-12-18T07:40:38.537Z,102661.25
2022-12-18T07:41:47.431Z,102659.63
2022-12-18T07:42:51.764Z,102658.06
2022-12-18T07:43:53.946Z,102654.16
2022-12-18T07:44:56.305Z,102663.41
2022-12-18T07:45:58.827Z,102654.38
2022-12-18T07:47:01.507Z,102654.75
2022-12-18T07:48:03.751Z,102659.53
2022-12-18T07:49:05.943Z,102657.91
2022-12-18T07:50:08.803Z,102660.91
2022-12-18T07:51:13.690Z,102648.84
2022-12-18T07:52:16.197Z,102650.69
2022-12-18T07:53:18.418Z,102649.66
2022-12-18T07:54:20.693Z,102649.94
2022-12-18T07:55:25.663Z,102651.00
2022-12-18T07:56:30.058Z,102654.28
2022-12-18T07:58:55.580Z,102652.13
2022-12-18T07:59:57.829Z,102656.22
2022-12-18T08:01:12.158Z,102657.53
2022-12-18T08:02:14.645Z,102653.88
2022-12-18T08:03:17.089Z,102658.66
2022-12-18T08:04:19.664Z,102654.28
2022-12-18T08:05:24.877Z,102647.16
2022-12-18T08:06:27.284Z,102643.31
2022-12-18T08:07:29.885Z,102640.78
2022-12-18T08:08:32.313Z,102650.31
2022-12-18T08:09:34.484Z,102648.31
2022-12-18T08:10:39.177Z,102657.13
2022-12-18T08:11:43.400Z,102653.69
2022-12-18T08:12:45.823Z,102651.91
2022-12-18T08:13:48.032Z,102649.38
2022-12-18T08:14:50.374Z,102653.94
2022-12-18T08:16:03.297Z,102657.44
2022-12-18T08:17:05.951Z,102650.66
2022-12-18T08:18:12.707Z,102647.81
2022-12-18T08:19:16.510Z,102649.44
2022-12-18T08:20:19.341Z,102652.88
2022-12-18T08:21:25.698Z,102642.06
2022-12-18T08:22:28.099Z,102639.34
2022-12-18T08:23:30.292Z,102646.56
2022-12-18T08:24:32.687Z,102641.91
2022-12-18T08:25:35.101Z,102643.44
2022-12-18T08:26:39.585Z,102643.19
2022-12-18T08:27:44.257Z,102644.34
2022-12-18T08:28:46.476Z,102639.25
2022-12-18T08:29:48.753Z,102640.69
2022-12-18T08:30:53.296Z,102639.25
2022-12-18T08:31:55.578Z,102647.69
2022-12-18T08:32:58.273Z,102644.22
2022-12-18T08:34:00.555Z,102646.00
2022-12-18T08:35:05.645Z,102637.81
2022-12-18T08:36:10.761Z,102636.19
2022-12-18T08:37:13.001Z,102642.25
2022-12-18T08:38:15.415Z,102638.31
2022-12-18T08:39:17.672Z,102642.38
2022-12-18T08:40:20.083Z,102645.50
2022-12-18T08:41:25.249Z,102651.16
2022-12-18T08:42:46.311Z,102642.47
2022-12-18T08:44:06.845Z,102650.31
2022-12-18T08:45:09.800Z,102654.09
2022-12-18T08:46:13.024Z,102651.47
2022-12-18T08:47:18.399Z,102652.53
2022-12-18T08:48:22.402Z,102648.38
2022-12-18T08:49:24.686Z,102664.00
2022-12-18T08:50:27.132Z,102656.13
2022-12-18T08:51:29.365Z,102654.19
2022-12-18T08:52:33.312Z,102654.38
2022-12-18T08:53:36.107Z,102658.81
2022-12-18T08:54:38.342Z,102659.44
2022-12-18T08:55:41.451Z,102651.19
2022-12-18T08:56:44.910Z,102659.41
2022-12-18T08:57:50.455Z,102659.75
2022-12-18T08:58:56.056Z,102661.16
2022-12-18T08:59:58.195Z,102662.69
2022-12-18T09:01:03.737Z,102662.19
2022-12-18T09:02:06.116Z,102665.31
2022-12-18T09:03:16.353Z,102666.19
2022-12-18T09:04:19.041Z,102670.75
2022-12-18T09:05:23.274Z,102668.84
2022-12-18T09:06:26.556Z,102674.59
2022-12-18T09:07:28.719Z,102672.88
2022-12-18T09:08:31.156Z,102670.91
2022-12-18T09:09:37.092Z,102674.94
2022-12-18T09:10:46.633Z,102670.44
2022-12-18T09:11:48.851Z,102675.91
2022-12-18T09:12:51.279Z,102677.38
2022-12-18T09:13:54.783Z,102671.31
2022-12-18T09:14:57.850Z,102664.22
2022-12-18T09:16:00.022Z,102671.84
2022-12-18T09:17:05.096Z,102664.75
2022-12-18T09:18:08.150Z,102667.44
2022-12-18T09:19:11.117Z,102667.09
2022-12-18T09:20:13.357Z,102661.09
2022-12-18T09:21:18.950Z,102658.56
2022-12-18T09:22:22.479Z,102657.81
2022-12-18T09:23:24.906Z,102649.97
2022-12-18T09:24:27.290Z,102654.69
2022-12-18T09:25:34.137Z,102653.59
2022-12-18T09:26:36.794Z,102657.44
2022-12-18T09:27:39.002Z,102655.44
2022-12-18T09:28:44.005Z,102659.31
2022-12-18T09:29:46.502Z,102658.66
2022-12-18T09:30:50.612Z,102665.41
2022-12-18T09:31:52.879Z,102666.78
2022-12-18T09:32:55.334Z,102665.03
2022-12-18T09:33:57.994Z,102666.59
2022-12-18T09:35:00.833Z,102671.59
2022-12-18T09:36:09.278Z,102679.53
2022-12-18T09:37:11.516Z,102677.81
2022-12-18T09:38:20.000Z,102681.88
2022-12-18T09:39:25.142Z,102677.22
2022-12-18T09:40:33.809Z,102683.06
2022-12-18T09:41:45.158Z,102677.44
2022-12-18T09:42:54.348Z,102679.53
2022-12-18T09:44:02.043Z,102687.47
2022-12-18T09:45:05.085Z,102692.63
2022-12-18T09:46:17.214Z,102696.41
2022-12-18T09:47:38.683Z,102698.50
2022-12-18T09:48:46.929Z,102698.47
2022-12-18T09:49:53.966Z,102700.38
2022-12-18T09:51:04.038Z,102701.25
2022-12-18T09:52:15.498Z,102707.91
2022-12-18T09:53:23.698Z,102706.25
2022-12-18T09:54:40.397Z,102700.34
2022-12-18T09:55:47.887Z,102699.81
2022-12-18T09:56:50.281Z,102710.38
2022-12-18T09:57:57.972Z,102704.69
2022-12-18T09:59:01.934Z,102713.69
2022-12-18T10:00:19.516Z,102714.97
2022-12-18T10:01:34.035Z,102716.16
2022-12-18T10:02:41.799Z,102715.44
2022-12-18T10:03:44.406Z,102711.31
2022-12-18T10:05:07.882Z,102707.63
2022-12-18T10:06:26.237Z,102704.91
2022-12-18T10:07:52.663Z,102705.00
2022-12-18T10:09:21.657Z,102708.78
2022-12-18T10:10:29.879Z,102704.78
2022-12-18T10:11:41.907Z,102699.56
2022-12-18T10:12:49.342Z,102701.69
2022-12-18T10:14:05.594Z,102703.00
2022-12-18T10:15:38.642Z,102693.59
2022-12-18T10:16:56.286Z,102684.09
2022-12-18T10:18:22.168Z,102687.19
2022-12-18T10:20:02.726Z,102695.59
2022-12-18T10:21:12.418Z,102678.22
2022-12-18T10:22:28.454Z,102684.34
2022-12-18T10:23:48.207Z,102677.03
2022-12-18T10:25:08.028Z,102680.13
2022-12-18T10:26:13.563Z,102665.34
2022-12-18T10:27:20.459Z,102670.72
2022-12-18T10:28:24.388Z,102664.75
2022-12-18T10:29:27.184Z,102659.41
2022-12-18T10:30:29.556Z,102657.97
2022-12-18T10:31:31.799Z,102654.50
2022-12-18T10:32:34.266Z,102651.00
2022-12-18T10:33:36.578Z,102654.50
2022-12-18T10:34:38.787Z,102649.78
2022-12-18T10:35:43.334Z,102654.44
2022-12-18T10:36:45.616Z,102641.34
2022-12-18T10:38:05.258Z,102641.72
2022-12-18T10:39:24.918Z,102637.09
2022-12-18T10:40:27.429Z,102644.06
2022-12-18T10:41:31.851Z,102641.44
2022-12-18T10:42:34.578Z,102640.53
2022-12-18T10:43:39.565Z,102637.59
2022-12-18T10:44:41.952Z,102637.25
2022-12-18T10:46:03.912Z,102636.03
2022-12-18T10:47:13.644Z,102627.41
2022-12-18T10:48:22.368Z,102641.38
2022-12-18T10:49:28.822Z,102638.91
2022-12-18T10:51:09.178Z,102641.47
2022-12-18T10:52:17.032Z,102635.09
2022-12-18T10:53:26.292Z,102634.81
2022-12-18T10:54:30.879Z,102636.16
2022-12-18T10:55:36.578Z,102641.78
2022-12-18T10:56:39.224Z,102633.31
2022-12-18T10:57:42.634Z,102635.81
2022-12-18T10:58:57.205Z,102639.91
2022-12-18T11:00:02.290Z,102644.22
2022-12-18T11:01:21.063Z,102641.91
2022-12-18T11:02:35.775Z,102633.25
2022-12-18T11:03:47.041Z,102630.03
2022-12-18T11:04:53.586Z,102628.84
2022-12-18T11:06:19.083Z,102624.94
2022-12-18T11:07:21.571Z,102625.06
2022-12-18T11:08:24.319Z,102615.78
2022-12-18T11:09:30.187Z,102618.00
2022-12-18T11:10:36.220Z,102609.25
2022-12-18T11:11:38.434Z,102616.50
2022-12-18T11:12:40.873Z,102613.84
2022-12-18T11:14:12.739Z,102608.22
2022-12-18T11:15:21.261Z,102610.78
2022-12-18T11:16:26.525Z,102610.66
2022-12-18T11:17:35.764Z,102607.22
2022-12-18T11:18:38.428Z,102600.91
2022-12-18T11:19:44.982Z,102605.59
2022-12-18T11:21:15.819Z,102606.75
2022-12-18T11:22:29.133Z,102596.28
2022-12-18T11:23:32.680Z,102603.72
2022-12-18T11:24:36.848Z,102598.25
2022-12-18T11:25:39.454Z,102595.84
2022-12-18T11:26:44.289Z,102593.16
2022-12-18T11:27:56.383Z,102592.94
2022-12-18T11:29:18.257Z,102599.25
2022-12-18T11:30:28.971Z,102590.75
2022-12-18T11:31:34.393Z,102591.34
2022-12-18T11:32:47.550Z,102588.44
2022-12-18T11:34:19.679Z,102592.22
2022-12-18T11:35:24.389Z,102595.63
2022-12-18T11:36:32.229Z,102594.09
2022-12-18T11:37:35.769Z,102582.97
2022-12-18T11:38:43.824Z,102589.34
2022-12-18T11:39:52.665Z,102591.94
2022-12-18T11:41:16.966Z,102588.75
2022-12-18T11:42:29.134Z,102588.63
2022-12-18T11:43:59.777Z,102579.59
2022-12-18T11:45:14.194Z,102590.09
2022-12-18T11:46:25.249Z,102595.63
2022-12-18T11:47:41.744Z,102583.53
2022-12-18T11:48:55.293Z,102590.72
2022-12-18T11:50:01.973Z,102591.28
2022-12-18T11:51:09.520Z,102591.56
2022-12-18T11:52:25.370Z,102588.53
2022-12-18T11:53:28.659Z,102599.97
2022-12-18T11:54:30.942Z,102594.56
2022-12-18T11:55:50.381Z,102584.53
2022-12-18T11:56:59.577Z,102596.69
2022-12-18T11:58:22.510Z,102595.88
2022-12-18T11:59:49.213Z,102600.38
2022-12-18T12:01:07.823Z,102597.63
2022-12-18T12:02:30.335Z,102602.91
2022-12-18T12:03:53.006Z,102599.91
2022-12-18T12:05:13.433Z,102608.81
2022-12-18T12:06:37.318Z,102604.88
2022-12-18T12:07:48.409Z,102600.22
2022-12-18T12:09:12.687Z,102601.84
2022-12-18T12:10:30.051Z,102595.91
2022-12-18T12:12:09.896Z,102593.13
2022-12-18T12:13:17.720Z,102597.44
2022-12-18T12:14:42.559Z,102600.31
2022-12-18T12:16:02.476Z,102600.31
2022-12-18T12:17:29.284Z,102606.78
2022-12-18T12:18:50.940Z,102602.66
2022-12-18T12:20:19.248Z,102608.66
2022-12-18T12:21:44.187Z,102612.34
2022-12-18T12:23:28.101Z,102607.25
2022-12-18T12:24:36.489Z,102608.63
2022-12-18T12:26:05.851Z,102611.56
2022-12-18T12:27:27.834Z,102601.53
2022-12-18T12:28:33.517Z,102619.44
2022-12-18T12:29:50.274Z,102623.47
2022-12-18T12:31:19.459Z,102616.78
2022-12-18T12:32:46.761Z,102618.81
2022-12-18T12:34:31.212Z,102606.25
2022-12-18T12:35:59.166Z,102622.09
2022-12-18T12:45:07.832Z,102593.41
2022-12-18T12:46:14.343Z,102594.84
2022-12-18T12:47:32.513Z,102594.88
2022-12-18T12:48:55.523Z,102596.72
2022-12-18T12:50:02.392Z,102592.56
2022-12-18T12:51:30.964Z,102601.75
2022-12-18T12:52:43.805Z,102604.13
2022-12-18T12:53:47.451Z,102609.06
2022-12-18T12:54:50.780Z,102610.03
2022-12-18T12:55:54.371Z,102596.84
2022-12-18T12:56:59.423Z,102599.09
2022-12-18T12:58:22.782Z,102595.25